createdAt,value
2023-01-25T00:02:05.571Z,25.10
2023-01-25T00:04:32.231Z,26.02
2023-01-25T00:06:59.168Z,25.67
2023-01-25T00:09:25.854Z,25.00
2023-01-25T00:11:53.260Z,25.95
2023-01-25T00:14:19.889Z,24.85
2023-01-25T00:16:46.375Z,25.65
2023-01-25T00:19:12.873Z,23.15
2023-01-25T00:21:40.019Z,23.98
2023-01-25T00:24:07.347Z,26.35
2023-01-25T00:26:35.701Z,25.92
2023-01-25T00:29:02.563Z,22.50
2023-01-25T00:31:35.283Z,23.30
2023-01-25T00:34:26.834Z,21.48
2023-01-25T00:36:57.334Z,25.23
2023-01-25T00:39:26.095Z,22.92
2023-01-25T00:41:52.768Z,20.52
2023-01-25T00:44:19.172Z,23.73
2023-01-25T00:46:45.566Z,23.85
2023-01-25T00:49:26.069Z,25.90
2023-01-25T00:51:54.519Z,23.70
2023-01-25T00:54:22.039Z,23.80
2023-01-25T00:56:48.677Z,24.85
2023-01-25T00:59:15.493Z,24.75
2023-01-25T01:01:42.576Z,24.40
2023-01-25T01:04:09.262Z,22.73
2023-01-25T01:06:39.799Z,24.73
2023-01-25T01:09:08.976Z,25.00
2023-01-25T01:11:35.479Z,22.77
2023-01-25T01:14:01.911Z,23.02
2023-01-25T01:16:31.152Z,24.45
2023-01-25T01:18:57.610Z,23.42
2023-01-25T01:21:24.542Z,26.15
2023-01-25T01:23:51.078Z,22.92
2023-01-25T01:26:21.443Z,27.58
2023-01-25T01:28:48.433Z,24.10
2023-01-25T01:31:23.013Z,24.10
2023-01-25T01:33:51.242Z,26.17
2023-01-25T01:36:19.378Z,25.38
2023-01-25T01:38:46.199Z,23.17
2023-01-25T01:41:14.054Z,28.63
2023-01-25T01:43:41.337Z,29.30
2023-01-25T01:46:34.542Z,26.25
2023-01-25T01:49:10.316Z,24.85
2023-01-25T01:51:51.900Z,25.27
2023-01-25T01:54:27.575Z,26.83
2023-01-25T01:57:09.207Z,29.00
2023-01-25T02:00:02.773Z,28.38
2023-01-25T02:02:29.260Z,28.25
2023-01-25T02:05:01.213Z,26.92
2023-01-25T02:07:34.852Z,27.45
2023-01-25T02:10:04.412Z,30.48
2023-01-25T02:12:31.570Z,28.60
2023-01-25T02:14:58.893Z,25.48
2023-01-25T02:17:32.055Z,25.98
2023-01-25T02:20:17.106Z,25.67
2023-01-25T02:23:12.835Z,25.25
2023-01-25T02:25:41.162Z,26.98
2023-01-25T02:28:18.091Z,29.88
2023-01-25T02:30:45.646Z,26.05
2023-01-25T02:33:12.252Z,29.05
2023-01-25T02:35:59.792Z,29.23
2023-01-25T02:38:27.733Z,26.48
2023-01-25T02:41:02.160Z,30.10
2023-01-25T02:43:31.564Z,28.42
2023-01-25T02:46:11.879Z,27.40
2023-01-25T02:48:38.295Z,26.83
2023-01-25T02:51:08.257Z,30.05
2023-01-25T02:53:35.042Z,25.95
2023-01-25T02:56:01.762Z,27.75
2023-01-25T02:58:28.157Z,29.73
2023-01-25T03:00:56.059Z,28.48
2023-01-25T03:03:22.571Z,27.77
2023-01-25T03:05:48.995Z,29.05
2023-01-25T03:08:15.428Z,27.10
2023-01-25T03:10:41.942Z,28.10
2023-01-25T03:13:08.347Z,33.33
2023-01-25T03:15:34.779Z,30.52
2023-01-25T03:18:03.467Z,27.58
2023-01-25T03:20:30.728Z,29.02
2023-01-25T03:22:57.168Z,29.48
2023-01-25T03:25:23.585Z,27.83
2023-01-25T03:27:50.035Z,28.77
2023-01-25T03:30:16.728Z,30.15
2023-01-25T03:32:43.141Z,29.95
2023-01-25T03:35:09.911Z,26.67
2023-01-25T03:37:36.584Z,30.63
2023-01-25T03:40:03.576Z,31.33
2023-01-25T03:42:29.965Z,29.50
2023-01-25T03:44:56.377Z,32.58
2023-01-25T03:47:23.042Z,31.13
2023-01-25T03:49:49.420Z,28.33
2023-01-25T03:52:15.864Z,31.42
2023-01-25T03:54:42.277Z,27.63
2023-01-25T03:57:08.759Z,27.45
2023-01-25T03:59:35.142Z,28.92
2023-01-25T04:02:02.932Z,30.50
2023-01-25T04:04:29.587Z,31.02
2023-01-25T04:06:55.973Z,32.47
2023-01-25T04:09:22.398Z,31.08
2023-01-25T04:11:52.181Z,32.60
2023-01-25T04:14:28.440Z,29.65
2023-01-25T04:17:05.268Z,31.77
2023-01-25T04:19:31.785Z,32.70
2023-01-25T04:21:58.274Z,34.20
2023-01-25T04:24:24.891Z,33.35
2023-01-25T04:26:51.394Z,33.15
2023-01-25T04:29:18.604Z,32.22
2023-01-25T04:31:46.145Z,34.13
2023-01-25T04:34:12.659Z,33.65
2023-01-25T04:36:39.022Z,32.67
2023-01-25T04:39:05.420Z,35.35
2023-01-25T04:41:31.996Z,34.63
2023-01-25T04:43:58.408Z,33.53
2023-01-25T04:46:24.892Z,36.80
2023-01-25T04:48:51.457Z,34.97
2023-01-25T04:51:18.053Z,32.70
2023-01-25T04:53:44.425Z,35.22
2023-01-25T04:56:10.790Z,34.38
2023-01-25T04:58:37.197Z,30.58
2023-01-25T05:01:04.604Z,34.28
2023-01-25T05:03:31.123Z,33.75
2023-01-25T05:05:57.518Z,30.75
2023-01-25T05:08:23.981Z,35.30
2023-01-25T05:10:50.447Z,34.65
2023-01-25T05:13:16.957Z,33.75
2023-01-25T05:15:43.428Z,32.03
2023-01-25T05:18:10.001Z,36.92
2023-01-25T05:20:36.603Z,34.08
2023-01-25T05:23:05.143Z,33.83
2023-01-25T05:25:49.875Z,34.30
2023-01-25T05:28:16.226Z,34.05
2023-01-25T05:30:42.868Z,35.05
2023-01-25T05:33:09.322Z,34.40
2023-01-25T05:35:35.733Z,34.72
2023-01-25T05:38:02.170Z,36.42
2023-01-25T05:40:28.764Z,32.28
2023-01-25T05:42:59.889Z,32.40
2023-01-25T05:45:26.738Z,34.90
2023-01-25T05:47:57.652Z,33.80
2023-01-25T05:50:25.563Z,32.10
2023-01-25T05:52:55.036Z,35.42
2023-01-25T05:55:21.422Z,36.13
2023-01-25T05:57:47.793Z,39.30
2023-01-25T06:00:14.816Z,36.47
2023-01-25T06:02:41.340Z,35.75
2023-01-25T06:05:08.630Z,35.83
2023-01-25T06:07:36.510Z,34.80
2023-01-25T06:10:05.037Z,36.13
2023-01-25T06:12:31.748Z,34.72
2023-01-25T06:14:58.129Z,33.00
2023-01-25T06:17:24.517Z,38.85
2023-01-25T06:19:50.917Z,36.58
2023-01-25T06:22:17.308Z,35.50
2023-01-25T06:24:43.747Z,38.10
2023-01-25T06:27:12.563Z,34.78
2023-01-25T06:29:38.961Z,33.85
2023-01-25T06:32:05.554Z,36.38
2023-01-25T06:34:31.951Z,34.15
2023-01-25T06:36:58.349Z,37.47
2023-01-25T06:39:24.807Z,36.53
2023-01-25T06:41:51.286Z,36.08
2023-01-25T06:44:17.679Z,37.33
2023-01-25T06:46:44.220Z,37.95
2023-01-25T06:49:10.836Z,40.95
2023-01-25T06:51:37.395Z,41.03
2023-01-25T06:54:04.538Z,36.67
2023-01-25T06:56:32.647Z,40.40
2023-01-25T06:58:59.194Z,36.97
2023-01-25T07:01:30.268Z,39.88
2023-01-25T07:03:58.920Z,33.35
2023-01-25T07:06:30.906Z,37.30
2023-01-25T07:09:05.400Z,37.42
2023-01-25T07:11:32.025Z,39.22
2023-01-25T07:13:58.492Z,36.30
2023-01-25T07:16:24.952Z,36.70
2023-01-25T07:18:51.498Z,37.92
2023-01-25T07:21:21.345Z,34.30
2023-01-25T07:23:49.432Z,38.25
2023-01-25T07:26:24.347Z,39.25
2023-01-25T07:28:52.325Z,35.90
2023-01-25T07:31:20.753Z,37.38
2023-01-25T07:33:51.730Z,38.53
2023-01-25T07:36:18.914Z,38.80
2023-01-25T07:38:45.380Z,75.18
2023-01-25T07:41:11.924Z,40.20
2023-01-25T07:43:38.880Z,36.60
2023-01-25T07:46:08.300Z,37.17
2023-01-25T07:48:34.724Z,41.45
2023-01-25T07:51:22.369Z,37.70
2023-01-25T07:53:52.132Z,42.88
2023-01-25T07:56:24.238Z,35.42
2023-01-25T07:58:54.347Z,41.88
2023-01-25T08:01:23.199Z,45.25
2023-01-25T08:03:50.460Z,38.08
2023-01-25T08:06:17.595Z,38.45
2023-01-25T08:08:49.935Z,36.97
2023-01-25T08:11:24.090Z,38.65
2023-01-25T08:13:50.614Z,40.65
2023-01-25T08:16:21.731Z,37.92
2023-01-25T08:18:53.540Z,42.03
2023-01-25T08:21:20.533Z,43.08
2023-01-25T08:23:47.497Z,43.22
2023-01-25T08:26:15.238Z,39.78
2023-01-25T08:28:41.645Z,40.55
2023-01-25T08:31:11.188Z,42.40
2023-01-25T08:33:38.547Z,38.45
2023-01-25T08:36:06.092Z,36.80
2023-01-25T08:38:32.656Z,46.50
2023-01-25T08:41:14.245Z,39.55
2023-01-25T08:43:40.718Z,44.47
2023-01-25T08:46:07.450Z,42.42
2023-01-25T08:48:34.263Z,42.80
2023-01-25T08:51:01.195Z,40.72
2023-01-25T08:53:29.039Z,42.15
2023-01-25T08:55:55.512Z,45.05
2023-01-25T08:58:22.553Z,43.65
2023-01-25T09:00:49.456Z,42.00
2023-01-25T09:03:18.140Z,43.88
2023-01-25T09:05:44.857Z,43.53
2023-01-25T09:08:11.564Z,41.45
2023-01-25T09:10:38.231Z,43.10
2023-01-25T09:13:06.410Z,41.42
2023-01-25T09:15:34.150Z,44.22
2023-01-25T09:18:00.525Z,44.28
2023-01-25T09:20:27.206Z,44.95
2023-01-25T09:22:55.262Z,44.15
2023-01-25T09:25:22.032Z,44.42
2023-01-25T09:27:51.637Z,44.38
2023-01-25T09:30:19.311Z,40.95
2023-01-25T09:32:49.172Z,45.83
2023-01-25T09:35:15.727Z,42.92
2023-01-25T09:37:42.145Z,40.53
2023-01-25T09:40:22.474Z,44.92
2023-01-25T09:43:06.476Z,46.88
2023-01-25T09:45:34.978Z,48.83
2023-01-25T09:48:15.109Z,45.55
2023-01-25T09:51:18.221Z,46.42
2023-01-25T09:53:51.248Z,43.95
2023-01-25T09:56:26.107Z,42.00
2023-01-25T09:58:58.416Z,45.63
2023-01-25T10:01:47.581Z,45.78
2023-01-25T10:04:21.145Z,47.65
2023-01-25T10:07:00.940Z,46.55
2023-01-25T10:09:54.076Z,47.35
2023-01-25T10:12:23.851Z,43.58
2023-01-25T10:14:51.514Z,45.38
2023-01-25T10:17:28.566Z,44.40
2023-01-25T10:20:10.543Z,45.70
2023-01-25T10:22:47.187Z,43.80
2023-01-25T10:25:31.935Z,47.13
2023-01-25T10:28:19.576Z,45.08
2023-01-25T10:31:03.408Z,47.10
2023-01-25T10:33:35.141Z,49.13
2023-01-25T10:36:05.139Z,49.78
2023-01-25T10:38:45.388Z,53.42
2023-01-25T10:41:28.791Z,49.25
2023-01-25T10:44:18.456Z,48.00
2023-01-25T10:46:51.945Z,50.58
2023-01-25T10:49:36.427Z,50.70
2023-01-25T10:52:21.381Z,46.40
2023-01-25T10:55:02.502Z,51.90
2023-01-25T10:57:29.700Z,46.83
2023-01-25T10:59:56.678Z,48.08
2023-01-25T11:02:35.428Z,47.72
2023-01-25T11:05:28.730Z,55.15
2023-01-25T11:07:56.008Z,44.45
2023-01-25T11:10:34.330Z,47.85
2023-01-25T11:13:16.285Z,46.58
2023-01-25T11:16:01.668Z,41.92
2023-01-25T11:18:31.658Z,45.33
2023-01-25T11:21:16.255Z,41.45
2023-01-25T11:23:42.715Z,43.67
2023-01-25T11:26:18.851Z,38.67
2023-01-25T11:28:49.074Z,41.08
2023-01-25T11:31:22.750Z,46.00
2023-01-25T11:33:49.335Z,44.92
2023-01-25T11:36:33.662Z,42.33
2023-01-25T11:39:09.134Z,48.95
2023-01-25T11:42:06.489Z,44.35
2023-01-25T11:44:51.234Z,42.90
2023-01-25T11:47:24.456Z,35.67
2023-01-25T11:50:12.366Z,44.97
2023-01-25T11:52:57.850Z,43.47
2023-01-25T11:55:42.478Z,44.38
2023-01-25T11:58:25.607Z,42.60
2023-01-25T12:01:10.497Z,46.92
2023-01-25T12:04:11.107Z,50.13
2023-01-25T12:06:56.183Z,45.88
2023-01-25T12:10:04.277Z,40.55
2023-01-25T12:12:41.935Z,48.17
2023-01-25T12:15:39.234Z,49.88
2023-01-25T12:18:11.622Z,49.28
2023-01-25T12:20:59.359Z,46.40
2023-01-25T12:23:50.740Z,44.92
2023-01-25T12:26:29.181Z,48.25
2023-01-25T12:29:14.544Z,44.63
2023-01-25T12:32:01.004Z,45.53
2023-01-25T12:34:38.776Z,45.72
2023-01-25T12:37:16.791Z,49.88
2023-01-25T12:39:57.488Z,36.10
2023-01-25T12:42:36.379Z,45.20
2023-01-25T12:45:08.168Z,41.25
2023-01-25T12:47:43.641Z,38.47
2023-01-25T12:50:24.526Z,41.50
2023-01-25T12:52:54.821Z,49.00
2023-01-25T12:55:21.805Z,47.25
2023-01-25T12:57:51.293Z,42.70
2023-01-25T13:00:45.668Z,39.92
2023-01-25T13:03:43.518Z,43.75
2023-01-25T13:06:16.274Z,45.80
2023-01-25T13:08:49.193Z,42.88
2023-01-25T13:11:31.975Z,42.33
2023-01-25T13:14:16.901Z,44.40
2023-01-25T13:17:01.531Z,37.92
2023-01-25T13:19:31.283Z,46.17
2023-01-25T13:21:59.717Z,46.63
2023-01-25T13:24:30.930Z,42.97
2023-01-25T13:29:46.960Z,43.03
2023-01-25T13:32:35.280Z,40.00
2023-01-25T13:35:02.394Z,50.30
2023-01-25T13:37:33.679Z,40.53
2023-01-25T13:43:11.536Z,46.20
2023-01-25T13:45:40.323Z,44.67
2023-01-25T13:48:19.630Z,48.60
2023-01-25T13:50:55.469Z,48.05
2023-01-25T13:53:24.611Z,45.08
2023-01-25T13:55:56.848Z,45.60
2023-01-25T13:58:32.692Z,44.85
2023-01-25T14:01:08.081Z,50.60
2023-01-25T14:03:55.082Z,50.72
2023-01-25T14:06:40.908Z,46.95
2023-01-25T14:09:20.702Z,48.67
2023-01-25T14:12:00.236Z,47.80
2023-01-25T14:14:27.030Z,41.17
2023-01-25T14:17:09.465Z,48.15
2023-01-25T14:19:38.768Z,48.45
2023-01-25T14:22:22.191Z,45.63
2023-01-25T14:25:07.323Z,44.45
2023-01-25T14:27:50.062Z,47.42
2023-01-25T14:30:25.960Z,49.65
2023-01-25T14:33:14.877Z,40.25
2023-01-25T14:36:11.507Z,47.80
2023-01-25T14:38:38.329Z,45.63
2023-01-25T14:41:36.079Z,50.53
2023-01-25T14:44:11.204Z,47.80
2023-01-25T14:46:39.348Z,48.40
2023-01-25T14:49:11.775Z,43.88
2023-01-25T14:51:44.953Z,51.58
2023-01-25T14:54:20.227Z,50.13
2023-01-25T14:56:51.267Z,52.38
2023-01-25T14:59:39.854Z,48.40
2023-01-25T15:02:26.117Z,46.03
2023-01-25T15:05:00.748Z,48.97
2023-01-25T15:07:46.011Z,45.58
2023-01-25T15:10:17.304Z,50.67
2023-01-25T15:15:33.684Z,46.63
2023-01-25T15:18:00.615Z,48.72
2023-01-25T15:20:35.307Z,45.35
2023-01-25T15:23:25.256Z,42.25
2023-01-25T15:26:00.160Z,51.75
2023-01-25T15:28:34.358Z,50.30
2023-01-25T15:31:01.289Z,45.60
2023-01-25T15:33:29.610Z,46.88
2023-01-25T15:35:57.456Z,48.75
2023-01-25T15:38:25.067Z,45.42
2023-01-25T15:40:51.879Z,44.95
2023-01-25T15:43:20.134Z,42.65
2023-01-25T15:45:50.307Z,45.33
2023-01-25T15:48:23.314Z,37.13
2023-01-25T15:50:49.986Z,40.00
2023-01-25T15:53:21.155Z,43.20
2023-01-25T15:55:52.583Z,47.20
2023-01-25T15:58:33.142Z,54.33
2023-01-25T16:01:02.468Z,40.42
2023-01-25T16:03:29.632Z,48.63
2023-01-25T16:06:05.559Z,51.67
2023-01-25T16:08:32.097Z,46.08
2023-01-25T16:10:58.747Z,50.85
2023-01-25T16:13:25.702Z,45.55
2023-01-25T16:15:54.575Z,45.20
2023-01-25T16:18:21.110Z,45.50
2023-01-25T16:20:47.790Z,48.28
2023-01-25T16:23:14.890Z,48.95
2023-01-25T16:25:43.084Z,49.50
2023-01-25T16:28:16.695Z,48.15
2023-01-25T16:30:46.691Z,48.03
2023-01-25T16:33:13.297Z,45.33
2023-01-25T16:35:39.818Z,49.85
2023-01-25T16:38:06.239Z,40.42
2023-01-25T16:40:38.746Z,43.70
2023-01-25T16:43:05.894Z,52.30
2023-01-25T16:45:32.491Z,55.08
2023-01-25T16:47:58.925Z,49.38
2023-01-25T16:50:25.488Z,48.90
2023-01-25T16:52:53.118Z,45.85
2023-01-25T16:55:19.655Z,48.10
2023-01-25T16:57:50.026Z,53.63
2023-01-25T17:00:17.176Z,55.70
2023-01-25T17:02:58.148Z,54.90
2023-01-25T17:05:27.763Z,55.72
2023-01-25T17:07:54.561Z,64.78
2023-01-25T17:10:21.109Z,64.25
2023-01-25T17:12:47.739Z,53.90
2023-01-25T17:15:14.266Z,59.92
2023-01-25T17:17:40.922Z,57.22
2023-01-25T17:20:08.949Z,57.17
2023-01-25T17:22:37.675Z,61.13
2023-01-25T17:25:07.528Z,59.80
2023-01-25T17:27:34.040Z,57.40
2023-01-25T17:30:00.537Z,56.92
2023-01-25T17:32:27.156Z,51.38
2023-01-25T17:34:53.809Z,61.33
2023-01-25T17:37:20.430Z,55.47
2023-01-25T17:39:47.713Z,51.63
2023-01-25T17:42:14.740Z,56.55
2023-01-25T17:44:41.295Z,47.95
2023-01-25T17:47:07.743Z,59.22
2023-01-25T17:49:34.468Z,51.35
2023-01-25T17:52:02.886Z,52.35
2023-01-25T17:54:29.434Z,51.60
2023-01-25T17:56:56.460Z,51.72
2023-01-25T17:59:23.453Z,53.47
2023-01-25T18:01:51.109Z,57.22
2023-01-25T18:04:37.012Z,52.35
2023-01-25T18:07:03.496Z,57.05
2023-01-25T18:09:31.451Z,56.65
2023-01-25T18:11:58.012Z,52.92
2023-01-25T18:14:24.781Z,61.60
2023-01-25T18:16:51.212Z,57.55
2023-01-25T18:19:17.701Z,57.00
2023-01-25T18:21:44.498Z,54.47
2023-01-25T18:24:25.042Z,61.88
2023-01-25T18:26:55.072Z,61.35
2023-01-25T18:30:04.759Z,51.58
2023-01-25T18:32:32.892Z,57.10
2023-01-25T18:34:59.525Z,53.95
2023-01-25T18:37:29.408Z,57.63
2023-01-25T18:39:56.803Z,61.80
2023-01-25T18:42:25.207Z,55.03
2023-01-25T18:44:52.081Z,61.38
2023-01-25T18:47:20.100Z,59.42
2023-01-25T18:49:51.184Z,68.43
2023-01-25T18:52:22.580Z,65.78
2023-01-25T18:57:16.393Z,60.45
2023-01-25T18:59:42.922Z,58.28
2023-01-25T19:02:14.776Z,62.08
2023-01-25T19:04:41.968Z,63.33
2023-01-25T19:07:08.742Z,70.80
2023-01-25T19:09:35.157Z,69.28
2023-01-25T19:12:01.884Z,69.20
2023-01-25T19:14:28.393Z,64.60
2023-01-25T19:16:54.789Z,59.40
2023-01-25T19:19:21.818Z,77.68
2023-01-25T19:21:48.503Z,59.30
2023-01-25T19:24:19.451Z,75.47
2023-01-25T19:26:47.391Z,64.07
2023-01-25T19:29:15.007Z,63.05
2023-01-25T19:31:41.602Z,67.30
2023-01-25T19:34:08.247Z,79.05
2023-01-25T19:36:37.680Z,66.90
2023-01-25T19:39:09.921Z,72.40
2023-01-25T19:41:38.758Z,73.15
2023-01-25T19:44:06.603Z,78.18
2023-01-25T19:46:35.226Z,87.07
2023-01-25T19:49:04.264Z,70.35
2023-01-25T19:51:33.141Z,87.85
2023-01-25T19:54:03.382Z,84.57
2023-01-25T19:56:40.877Z,80.15
2023-01-25T19:59:11.282Z,82.22
2023-01-25T20:01:41.875Z,76.38
2023-01-25T20:04:08.870Z,86.68
2023-01-25T20:06:35.385Z,81.50
2023-01-25T20:09:01.934Z,74.80
2023-01-25T20:11:33.289Z,81.95
2023-01-25T20:16:28.176Z,54.38
2023-01-25T20:18:56.494Z,80.20
2023-01-25T20:21:24.404Z,75.72
2023-01-25T20:23:55.010Z,76.47
2023-01-25T20:26:24.542Z,83.97
2023-01-25T20:28:52.962Z,83.22
2023-01-25T20:31:23.941Z,81.72
2023-01-25T20:33:52.009Z,86.78
2023-01-25T20:36:18.722Z,76.93
2023-01-25T20:38:45.597Z,70.30
2023-01-25T20:41:14.393Z,84.65
2023-01-25T20:43:49.038Z,91.22
2023-01-25T20:46:19.654Z,82.70
2023-01-25T20:48:47.033Z,92.07
2023-01-25T20:51:16.990Z,77.65
2023-01-25T20:53:45.651Z,87.85
2023-01-25T20:56:13.414Z,76.88
2023-01-25T20:58:40.188Z,88.72
2023-01-25T21:01:16.209Z,88.85
2023-01-25T21:03:42.732Z,79.75
2023-01-25T21:06:09.593Z,53.17
2023-01-25T21:08:36.240Z,81.68
2023-01-25T21:11:02.828Z,79.13
2023-01-25T21:13:29.384Z,80.32
2023-01-25T21:16:15.044Z,79.00
2023-01-25T21:18:46.880Z,81.75
2023-01-25T21:21:15.780Z,86.82
2023-01-25T21:23:44.934Z,92.25
2023-01-25T21:26:15.550Z,84.55
2023-01-25T21:28:42.116Z,83.32
2023-01-25T21:31:11.151Z,88.70
2023-01-25T21:33:38.082Z,96.22
2023-01-25T21:36:08.455Z,101.63
2023-01-25T21:38:35.944Z,95.50
2023-01-25T21:41:05.171Z,84.65
2023-01-25T21:43:55.295Z,82.88
2023-01-25T21:46:26.682Z,102.88
2023-01-25T21:49:16.400Z,91.38
2023-01-25T21:51:51.489Z,87.80
2023-01-25T21:54:25.442Z,83.30
2023-01-25T21:56:54.541Z,84.70
2023-01-25T21:59:22.242Z,89.78
2023-01-25T22:01:49.614Z,89.18
2023-01-25T22:04:17.714Z,80.45
2023-01-25T22:06:44.592Z,90.32
2023-01-25T22:09:13.232Z,88.90
2023-01-25T22:11:40.419Z,99.20
2023-01-25T22:14:07.340Z,95.85
2023-01-25T22:16:33.949Z,94.78
2023-01-25T22:19:00.597Z,90.53
2023-01-25T22:21:30.950Z,80.30
2023-01-25T22:24:02.193Z,93.70
2023-01-25T22:29:15.041Z,79.43
2023-01-25T22:31:41.727Z,84.38
2023-01-25T22:34:08.360Z,85.65
2023-01-25T22:36:34.937Z,71.65
2023-01-25T22:39:01.548Z,80.93
2023-01-25T22:41:31.693Z,81.88
2023-01-25T22:43:58.602Z,80.75
2023-01-25T22:46:27.798Z,86.10
2023-01-25T22:48:54.337Z,70.85
2023-01-25T22:51:25.338Z,73.63
2023-01-25T22:56:29.382Z,70.47
2023-01-25T22:58:56.157Z,80.35
2023-01-25T23:01:25.301Z,75.82
2023-01-25T23:03:52.693Z,73.43
2023-01-25T23:06:24.902Z,81.47
2023-01-25T23:08:54.745Z,79.15
2023-01-25T23:11:23.130Z,73.43
2023-01-25T23:14:08.688Z,74.28
2023-01-25T23:16:35.682Z,77.88
2023-01-25T23:19:04.788Z,78.10
2023-01-25T23:21:31.740Z,83.85
2023-01-25T23:24:02.412Z,78.90
2023-01-25T23:26:30.530Z,75.78
2023-01-25T23:28:57.952Z,76.93
2023-01-25T23:31:26.085Z,85.85
2023-01-25T23:33:58.012Z,94.60
2023-01-25T23:36:29.658Z,90.22
2023-01-25T23:38:57.137Z,90.25
2023-01-25T23:41:26.230Z,66.93
2023-01-25T23:43:52.699Z,83.60
2023-01-25T23:46:19.433Z,98.32
2023-01-25T23:48:46.507Z,87.18
2023-01-25T23:51:14.703Z,98.18
2023-01-25T23:53:41.538Z,70.30
2023-01-25T23:56:12.450Z,91.40
2023-01-25T23:58:39.705Z,87.03
